Callands, VA

9:56 AM EDT on August 28, 2016 (GMT -0400)
Reidsville | | Change Station

Elev 692 ft 36.44 °N, 79.85 °W | Updated 16 minutes ago

Clear
Clear
76 °F
Feels Like 76 °F
N
5
Wind Variable Wind from NNE

Today
High -- | Low -- °F
--% Chance of Precip.
Yesterday
High -- | Low -- °F
Precip. -- in
Pressure 30.26 in
Visibility 10.0 miles
Clouds Clear
Dew Point 69 °F
Humidity 78%
Rainfall 0.00 in
Snow Depth Not available.
6:46 AM 7:51 PM
Waning Crescent, 15% visible
METAR KSIF 281340Z AUTO 02004KT 10SM CLR 25/21 A3026 RMK AO2 T02460205
Pressure 30.26 in
Visibility 10.0 miles
Clouds Clear
Dew Point 69 °F
Humidity 78%
Rainfall 0.00 in
Snow Depth Not available.
6:46 AM 7:51 PM
Waning Crescent, 15% visible
METAR KSIF 281340Z AUTO 02004KT 10SM CLR 25/21 A3026 RMK AO2 T02460205

10-Day Weather Forecast

Almanac

Astronomy

Aug. 28, 2016 Rise Set
Actual Time
Civil Twilight
Nautical Twilight
Astronomical Twilight
Moon
Length of Visible Light
Length of Day
Tomorrow will be .
, % of the Moon is Illuminated

Today's Extremes

State Highs State Lows

Community

WunderPhotos

Upload Photos

1,935,567 photos uploaded!

WunderBlog® & News

Nearby

Air Quality

  Air Quality AQ Index Pollutant
Not available.

Snow Depth

Station Depth Elevation

Earthquake Activity

City Distance Mag. Time & Date
Minimum magnitude displayed is 2.5.

Coastal Water Temperatures

Place Temperature

Stations

Nearby Weather Stations

Station Location Temp. Windchill Dew Point Humidity Wind Precip. Elev Updated Type
                   

Watches & Warnings

There are currently no watches in effect.